createdAt,value
2019-04-04T00:01:00.575Z,14.63
2019-04-04T00:03:29.508Z,15.27
2019-04-04T00:05:58.372Z,13.47
2019-04-04T00:11:07.825Z,15.20
2019-04-04T00:13:36.506Z,16.17
2019-04-04T00:16:05.236Z,15.00
2019-04-04T00:18:37.266Z,16.13
2019-04-04T00:21:10.230Z,18.20
2019-04-04T00:23:38.871Z,18.27
2019-04-04T00:26:14.803Z,18.27
2019-04-04T00:28:44.115Z,21.03
2019-04-04T00:31:18.909Z,16.80
2019-04-04T00:33:47.257Z,19.60
2019-04-04T00:36:17.684Z,18.80
2019-04-04T00:38:46.430Z,20.00
2019-04-04T00:41:14.925Z,19.30
2019-04-04T00:43:43.702Z,19.03
2019-04-04T00:46:14.166Z,16.40
2019-04-04T00:48:42.914Z,19.87
2019-04-04T00:51:11.518Z,16.90
2019-04-04T00:53:42.757Z,19.37
2019-04-04T00:56:10.536Z,17.60
2019-04-04T00:58:42.284Z,18.63
2019-04-04T01:01:10.889Z,19.47
2019-04-04T01:03:39.537Z,19.10
2019-04-04T01:06:10.986Z,20.03
2019-04-04T01:08:43.968Z,23.57
2019-04-04T01:11:18.254Z,17.40
2019-04-04T01:13:43.806Z,18.37
2019-04-04T01:16:16.832Z,18.70
2019-04-04T01:18:47.526Z,20.53
2019-04-04T01:21:16.764Z,21.40
2019-04-04T01:23:51.967Z,19.17
2019-04-04T01:26:20.618Z,22.40
2019-04-04T01:29:10.233Z,21.83
2019-04-04T01:31:31.577Z,21.80
2019-04-04T01:34:01.187Z,18.93
2019-04-04T01:36:29.831Z,22.30
2019-04-04T01:39:00.199Z,18.57
2019-04-04T01:41:28.741Z,20.83
2019-04-04T01:44:04.929Z,19.73
2019-04-04T01:46:27.854Z,20.23
2019-04-04T01:48:56.345Z,25.63
2019-04-04T01:51:37.418Z,19.00
2019-04-04T01:54:10.708Z,20.40
2019-04-04T01:56:37.046Z,21.93
2019-04-04T01:59:06.668Z,20.43
2019-04-04T02:01:37.441Z,20.97
2019-04-04T02:04:11.416Z,20.70
2019-04-04T02:06:46.277Z,20.20
2019-04-04T02:09:19.053Z,21.77
2019-04-04T02:11:48.046Z,22.00
2019-04-04T02:14:19.399Z,22.57
2019-04-04T02:16:51.614Z,20.23
2019-04-04T02:19:20.363Z,21.77
2019-04-04T02:21:52.298Z,19.40
2019-04-04T02:24:27.167Z,19.90
2019-04-04T02:26:59.024Z,22.23
2019-04-04T02:29:27.574Z,21.07
2019-04-04T02:32:02.827Z,20.93
2019-04-04T02:34:31.565Z,21.97
2019-04-04T02:37:00.185Z,19.40
2019-04-04T02:39:29.040Z,20.30
2019-04-04T02:41:57.537Z,20.23
2019-04-04T02:44:26.179Z,23.20
2019-04-04T02:46:55.052Z,21.60
2019-04-04T02:49:28.114Z,21.73
2019-04-04T02:51:54.208Z,22.37
2019-04-04T02:54:25.610Z,20.93
2019-04-04T02:56:54.677Z,21.30
2019-04-04T02:59:27.699Z,23.50
2019-04-04T03:02:05.917Z,22.57
2019-04-04T03:04:46.832Z,22.83
2019-04-04T03:07:16.960Z,22.43
2019-04-04T03:09:50.080Z,22.20
2019-04-04T03:12:18.701Z,22.90
2019-04-04T03:14:50.310Z,26.37
2019-04-04T03:17:17.406Z,21.93
2019-04-04T03:19:47.752Z,22.93
2019-04-04T03:22:16.368Z,24.03
2019-04-04T03:24:45.361Z,24.60
2019-04-04T03:27:13.834Z,22.07
2019-04-04T03:29:42.397Z,22.23
2019-04-04T03:32:14.513Z,25.63
2019-04-04T03:34:51.931Z,25.60
2019-04-04T03:37:20.926Z,22.90
2019-04-04T03:39:52.176Z,24.37
2019-04-04T03:42:25.484Z,24.33
2019-04-04T03:47:29.611Z,24.77
2019-04-04T03:50:02.698Z,23.77
2019-04-04T03:52:33.991Z,25.17
2019-04-04T03:55:05.602Z,24.17
2019-04-04T03:57:38.092Z,25.97
2019-04-04T04:00:17.525Z,23.67
2019-04-04T04:03:01.990Z,27.27
2019-04-04T04:05:35.729Z,26.67
2019-04-04T04:08:11.598Z,26.37
2019-04-04T04:10:51.139Z,27.37
2019-04-04T04:13:21.262Z,27.60
2019-04-04T04:15:51.890Z,28.90
2019-04-04T04:18:22.519Z,28.57
2019-04-04T04:21:03.692Z,26.17
2019-04-04T04:26:26.674Z,29.07
2019-04-04T04:29:32.819Z,30.93
2019-04-04T04:31:58.649Z,28.10
2019-04-04T04:34:33.985Z,26.83
2019-04-04T04:40:25.815Z,29.80
2019-04-04T04:43:00.717Z,28.77
2019-04-04T04:48:47.790Z,29.17
2019-04-04T04:51:19.539Z,27.70
2019-04-04T04:54:05.736Z,30.30
2019-04-04T04:59:29.015Z,30.57
2019-04-04T05:44:22.309Z,32.27
2019-04-04T05:59:42.495Z,31.93
2019-04-04T06:07:46.909Z,30.70
2019-04-04T06:09:25.970Z,33.50
2019-04-04T06:22:33.823Z,35.63
2019-04-04T06:25:05.687Z,31.87
2019-04-04T06:51:00.849Z,22.43
2019-04-04T06:56:34.928Z,23.33
2019-04-04T06:59:30.503Z,17.13
2019-04-04T08:25:39.032Z,9.53
2019-04-04T08:30:03.546Z,10.13
2019-04-04T08:33:25.401Z,10.10
2019-04-04T08:56:12.007Z,9.60
2019-04-04T09:08:27.910Z,6.93
2019-04-04T09:11:02.784Z,7.00
2019-04-04T09:13:34.409Z,5.60
2019-04-04T09:19:16.800Z,7.03
2019-04-04T09:28:38.913Z,6.40
2019-04-04T09:34:05.511Z,7.30
2019-04-04T09:36:34.244Z,4.87
2019-04-04T09:39:04.378Z,5.10
2019-04-04T09:41:47.907Z,5.27
2019-04-04T09:44:20.661Z,6.00
2019-04-04T09:46:49.240Z,4.80
2019-04-04T09:52:46.948Z,4.10
2019-04-04T09:55:47.282Z,5.30
2019-04-04T10:01:06.726Z,7.40
2019-04-04T10:03:46.515Z,5.53
2019-04-04T10:06:20.042Z,4.63
2019-04-04T10:09:15.648Z,4.40
2019-04-04T10:11:39.973Z,4.90
2019-04-04T10:17:09.827Z,4.67
2019-04-04T10:19:45.513Z,3.50
2019-04-04T10:22:40.142Z,3.37
2019-04-04T10:25:20.343Z,3.80
2019-04-04T10:28:10.227Z,6.20
2019-04-04T10:31:07.856Z,3.63
2019-04-04T10:39:54.411Z,3.47
2019-04-04T10:45:00.813Z,3.43
2019-04-04T10:50:41.394Z,3.63
2019-04-04T11:01:33.427Z,2.90
2019-04-04T11:04:02.138Z,3.83
2019-04-04T11:06:34.951Z,3.07
2019-04-04T11:15:30.847Z,2.90
2019-04-04T11:18:07.996Z,2.60
2019-04-04T11:20:40.879Z,5.43
2019-04-04T11:23:24.245Z,2.70
2019-04-04T11:38:51.038Z,1.47
2019-04-04T11:53:31.471Z,3.47
2019-04-04T11:56:04.616Z,3.67
2019-04-04T11:58:42.243Z,1.50
2019-04-04T12:01:36.055Z,2.60
2019-04-04T13:18:51.441Z,3.67
2019-04-04T13:22:22.509Z,3.63
2019-04-04T13:28:39.302Z,3.03
2019-04-04T13:37:25.670Z,3.03
2019-04-04T13:52:47.904Z,3.57
2019-04-04T14:06:03.465Z,4.07
2019-04-04T14:08:57.237Z,3.30
2019-04-04T14:14:35.112Z,3.00
2019-04-04T14:17:30.755Z,5.83
2019-04-04T15:04:04.953Z,2.73
2019-04-04T15:07:04.240Z,4.77
2019-04-04T15:13:20.231Z,1.60
2019-04-04T15:16:11.009Z,3.60
2019-04-04T15:18:49.300Z,2.63
2019-04-04T15:39:34.553Z,3.17
2019-04-04T15:42:35.175Z,1.57
2019-04-04T15:44:53.642Z,1.30
2019-04-04T15:45:32.954Z,1.70
2019-04-04T15:47:22.268Z,1.67
2019-04-04T15:49:51.072Z,1.87
2019-04-04T15:52:19.458Z,2.57
2019-04-04T15:54:48.042Z,2.27
2019-04-04T15:57:16.862Z,2.07
2019-04-04T15:59:45.346Z,2.70
2019-04-04T16:02:13.872Z,3.30
2019-04-04T16:04:42.546Z,2.10
2019-04-04T16:07:13.009Z,1.83
2019-04-04T16:09:41.770Z,2.37
2019-04-04T16:12:10.176Z,2.07
2019-04-04T16:14:38.965Z,4.00
2019-04-04T16:17:07.464Z,2.33
2019-04-04T16:19:35.869Z,2.03
2019-04-04T16:22:06.928Z,6.13
2019-04-04T16:24:42.933Z,3.30
2019-04-04T16:27:18.368Z,3.73
2019-04-04T16:29:53.872Z,25.30
2019-04-04T16:35:23.435Z,6.70
2019-04-04T16:38:15.725Z,4.30
2019-04-04T16:40:41.800Z,3.60
2019-04-04T16:43:39.390Z,2.93
2019-04-04T16:46:12.425Z,2.13
2019-04-04T16:48:41.063Z,2.67
2019-04-04T16:51:14.200Z,2.73
2019-04-04T16:54:04.145Z,3.63
2019-04-04T16:56:37.964Z,2.27
2019-04-04T16:59:09.040Z,2.17
2019-04-04T17:01:37.749Z,3.03
2019-04-04T17:04:06.277Z,2.67
2019-04-04T17:09:10.113Z,3.60
2019-04-04T17:11:38.697Z,5.03
2019-04-04T17:14:10.473Z,4.63
2019-04-04T17:16:54.221Z,5.30
2019-04-04T17:19:22.839Z,3.57
2019-04-04T17:22:09.006Z,4.97
2019-04-04T17:24:36.019Z,3.90
2019-04-04T17:27:43.712Z,4.00
2019-04-04T17:40:07.143Z,2.43
2019-04-04T17:42:53.781Z,8.67
2019-04-04T17:45:37.925Z,5.80
2019-04-04T17:48:09.647Z,5.27
2019-04-04T17:50:38.167Z,5.57
2019-04-04T17:53:11.386Z,5.43
2019-04-04T17:55:46.079Z,6.67
2019-04-04T17:58:18.398Z,4.40
2019-04-04T18:00:49.631Z,4.67
2019-04-04T18:03:18.365Z,3.60
2019-04-04T18:05:48.704Z,4.63
2019-04-04T18:08:47.061Z,6.17
2019-04-04T18:11:32.379Z,4.43
2019-04-04T18:14:19.155Z,4.13
2019-04-04T18:16:51.069Z,6.50
2019-04-04T18:19:22.636Z,3.83
2019-04-04T18:28:04.445Z,7.77
2019-04-04T19:11:32.812Z,6.17
2019-04-04T19:18:09.780Z,8.07
2019-04-04T19:20:30.116Z,14.17
2019-04-04T19:29:07.058Z,8.87
2019-04-04T19:35:03.216Z,7.10
2019-04-04T19:38:43.913Z,6.73
2019-04-04T19:44:09.714Z,6.17
2019-04-04T19:50:21.162Z,4.67
2019-04-04T20:06:38.562Z,4.57
2019-04-04T20:18:51.605Z,5.73
2019-04-04T20:28:33.728Z,5.87
2019-04-04T20:34:22.156Z,7.83
2019-04-04T21:09:38.150Z,8.13
